Time;durP1;ratioP1;P1;durP2;ratioP2;P2;SDS_P1;SDS_P2;PMS_P1;PMS_P2;Temp;Humidity;BMP_temperature;BMP_pressure;BME280_temperature;BME280_humidity;BME280_pressure;Samples;Min_cycle;Max_cycle;Signal;HPM_P1;HPM_P2
2022/08/17 00:00:05;;;;;;;61.30;45.43;;;;;;;22.22;59.33;101087.94;5195365;28;20863;-53
2022/08/17 00:02:37;;;;;;;59.92;44.35;;;;;;;22.20;59.53;101090.00;5192700;28;20807;-56
2022/08/17 00:05:09;;;;;;;61.80;46.00;;;;;;;22.21;59.46;101094.38;5187653;28;20444;-55
2022/08/17 00:07:43;;;;;;;57.80;44.47;;;;;;;22.25;59.51;101102.81;5190711;28;20824;-49
2022/08/17 00:10:15;;;;;;;57.63;42.40;;;;;;;22.29;59.53;101098.63;5188803;28;20444;-53
2022/08/17 00:12:48;;;;;;;58.47;42.78;;;;;;;22.32;59.47;101103.56;5182409;28;20414;-50
2022/08/17 00:15:22;;;;;;;54.28;42.47;;;;;;;22.34;59.57;101096.13;5186337;28;20444;-51
2022/08/17 00:17:54;;;;;;;54.80;42.75;;;;;;;22.35;59.70;101092.38;5190246;28;20450;-53
2022/08/17 00:20:26;;;;;;;59.33;42.10;;;;;;;22.25;59.59;101071.34;5192153;28;20925;-53
2022/08/17 00:23:10;;;;;;;57.80;42.80;;;;;;;22.36;59.59;101082.41;5191930;28;20524;-53
2022/08/17 00:25:45;;;;;;;55.13;40.85;;;;;;;22.24;59.59;101058.13;5178549;28;25115;-52
2022/08/17 00:32:04;;;;;;;55.38;41.17;;;;;;;22.39;60.08;101093.59;5192681;28;25227;-49
2022/08/17 00:34:39;;;;;;;56.13;42.17;;;;;;;22.21;60.06;101063.97;5188605;28;20814;-49
2022/08/17 00:37:12;;;;;;;56.78;43.13;;;;;;;22.31;60.23;101083.09;5177352;28;21067;-49
2022/08/17 00:39:45;;;;;;;52.50;40.13;;;;;;;22.09;60.43;101047.69;5188211;28;20436;-49
2022/08/17 00:42:19;;;;;;;53.67;41.33;;;;;;;22.31;60.45;101075.84;5186232;28;21032;-49
2022/08/17 00:44:52;;;;;;;54.53;41.67;;;;;;;22.32;60.37;101079.34;5186706;28;20746;-53
2022/08/17 00:47:24;;;;;;;53.50;41.13;;;;;;;22.32;60.58;101076.66;5181435;28;20940;-49
2022/08/17 00:49:56;;;;;;;55.13;41.17;;;;;;;22.31;60.59;101075.84;5185146;28;20397;-46
2022/08/17 00:53:25;;;;;;;53.05;38.65;;;;;;;22.33;60.75;101079.16;5183426;28;20763;-52
2022/08/17 00:56:02;;;;;;;50.03;39.53;;;;;;;22.27;60.78;101058.50;5188821;28;25163;-52
2022/08/17 00:58:36;;;;;;;53.75;38.88;;;;;;;22.33;60.69;101057.63;5186946;28;20939;-51
2022/08/17 01:01:11;;;;;;;48.67;38.42;;;;;;;22.36;60.98;101058.19;5184148;28;20427;-49
2022/08/17 01:03:43;;;;;;;49.67;38.83;;;;;;;22.38;60.70;101053.44;5186094;28;20843;-50
2022/08/17 01:06:16;;;;;;;49.40;37.50;;;;;;;22.40;60.93;101057.56;5187800;28;20425;-50
2022/08/17 01:08:50;;;;;;;55.00;39.55;;;;;;;22.38;60.95;101048.88;5185400;28;20915;-45
2022/08/17 01:11:24;;;;;;;50.05;39.35;;;;;;;22.37;61.04;101041.84;5188468;28;20437;-47
2022/08/17 01:13:56;;;;;;;52.00;39.22;;;;;;;22.35;61.04;101043.94;5199591;28;20417;-53
2022/08/17 01:16:31;;;;;;;53.30;40.40;;;;;;;22.31;61.24;101030.09;5187291;28;20729;-54
2022/08/17 01:19:10;;;;;;;60.05;42.13;;;;;;;22.30;61.26;101041.09;5186498;28;20746;-51
2022/08/17 01:21:50;;;;;;;54.97;42.15;;;;;;;22.28;61.35;101041.31;5184658;28;25109;-51
2022/08/17 01:24:24;;;;;;;60.80;41.55;;;;;;;22.27;61.29;101046.94;5187140;28;25143;-53
2022/08/17 01:26:57;;;;;;;53.58;40.00;;;;;;;22.28;61.40;101048.56;5190238;28;20401;-50
2022/08/17 01:29:30;;;;;;;54.97;40.83;;;;;;;22.31;61.32;101054.31;5189839;28;20399;-49
2022/08/17 01:32:05;;;;;;;57.00;41.97;;;;;;;22.30;61.52;101057.25;5179573;28;20919;-52
2022/08/17 01:34:38;;;;;;;57.95;42.65;;;;;;;22.29;61.49;101061.78;5186415;28;20899;-54
2022/08/17 01:37:11;;;;;;;58.80;44.15;;;;;;;22.27;61.50;101057.69;5185861;28;20444;-48
2022/08/17 01:39:57;;;;;;;58.28;42.78;;;;;;;22.25;61.53;101049.81;5189026;28;20974;-48
2022/08/17 01:42:36;;;;;;;55.30;43.50;;;;;;;22.25;61.65;101055.22;5188039;28;25179;-52
2022/08/17 01:45:12;;;;;;;54.88;43.42;;;;;;;22.26;61.85;101056.03;5184456;28;25094;-53
2022/08/17 01:47:45;;;;;;;55.97;43.60;;;;;;;22.24;61.83;101058.13;5187170;28;20419;-50
2022/08/17 01:50:21;;;;;;;59.03;44.58;;;;;;;22.26;61.91;101056.03;5184990;28;20745;-51
2022/08/17 01:52:58;;;;;;;58.97;44.00;;;;;;;22.29;62.02;101066.34;5186670;28;20436;-53
2022/08/17 01:55:38;;;;;;;59.58;44.42;;;;;;;22.31;61.97;101057.00;5189548;28;20430;-45
2022/08/17 01:58:11;;;;;;;60.17;45.08;;;;;;;22.30;62.15;101062.63;5183595;28;25176;-49
2022/08/17 02:00:45;;;;;;;52.88;41.30;;;;;;;22.34;61.99;101058.44;5184365;28;20423;-51
2022/08/17 02:03:18;;;;;;;51.40;39.67;;;;;;;22.39;62.14;101061.28;5187810;28;20834;-51
2022/08/17 02:05:52;;;;;;;50.78;41.03;;;;;;;22.37;62.03;101058.00;5187915;28;20424;-52
2022/08/17 02:08:24;;;;;;;57.17;42.72;;;;;;;22.48;62.19;101065.34;5182819;28;20866;-49
2022/08/17 02:10:58;;;;;;;53.78;42.75;;;;;;;22.50;61.95;101063.22;5186621;28;20752;-50
2022/08/17 02:13:32;;;;;;;53.47;41.57;;;;;;;22.51;62.11;101064.88;5187603;28;20403;-52
2022/08/17 02:16:04;;;;;;;52.95;41.58;;;;;;;22.49;62.21;101066.16;5187213;28;20429;-50
2022/08/17 02:18:37;;;;;;;53.22;42.00;;;;;;;22.49;62.10;101066.16;5185722;28;20422;-50
2022/08/17 02:21:10;;;;;;;59.13;43.78;;;;;;;22.42;62.30;101060.84;5188630;28;20774;-51
2022/08/17 02:23:47;;;;;;;59.03;45.35;;;;;;;22.37;62.39;101063.38;5186665;28;20994;-52
2022/08/17 02:26:21;;;;;;;60.20;43.90;;;;;;;22.36;62.32;101067.13;5184559;28;20859;-52
2022/08/17 02:28:54;;;;;;;58.40;42.88;;;;;;;22.38;62.51;101067.69;5188294;28;20443;-53
2022/08/17 02:31:26;;;;;;;61.83;45.37;;;;;;;22.41;62.24;101078.03;5186055;28;20757;-51
2022/08/17 02:33:59;;;;;;;57.80;44.63;;;;;;;22.45;62.39;101087.31;5189179;28;20913;-52
2022/08/17 02:36:52;;;;;;;63.72;45.88;;;;;;;22.49;62.27;101091.19;5191529;28;20421;-50
2022/08/17 02:39:24;;;;;;;61.20;46.38;;;;;;;22.53;62.31;101099.66;5184560;28;25134;-50
2022/08/17 02:42:40;;;;;;;54.83;42.65;;;;;;;22.56;62.29;101118.06;5192179;28;20739;-53
2022/08/17 02:45:17;;;;;;;52.50;40.67;;;;;;;22.51;62.69;101140.22;5188514;28;20700;-51
2022/08/17 02:47:50;;;;;;;50.92;39.00;;;;;;;22.49;62.60;101146.91;5183603;28;20724;-54
2022/08/17 02:50:24;;;;;;;50.47;39.97;;;;;;;22.50;62.65;101159.31;5182439;28;20939;-49
2022/08/17 02:52:57;;;;;;;42.65;30.42;;;;;;;22.49;62.69;101179.19;5186055;28;20425;-43
2022/08/17 02:55:32;;;;;;;47.28;34.25;;;;;;;22.40;63.04;101184.03;5186498;28;20403;-44
2022/08/17 02:58:07;;;;;;;27.35;19.50;;;;;;;22.35;63.09;101191.94;5180094;28;20589;-42
2022/08/17 03:00:42;;;;;;;20.35;14.90;;;;;;;22.24;63.15;101189.97;5181905;28;20440;-43
2022/08/17 03:03:18;;;;;;;18.70;13.80;;;;;;;22.22;63.14;101194.72;5180815;28;20849;-43
2022/08/17 03:05:51;;;;;;;21.00;14.15;;;;;;;22.20;62.95;101186.03;5185776;28;20462;-43
2022/08/17 03:08:24;;;;;;;14.55;10.02;;;;;;;22.18;62.88;101196.22;5186167;28;20424;-44
2022/08/17 03:10:57;;;;;;;15.75;9.57;;;;;;;22.15;62.84;101193.94;5185413;28;20870;-42
2022/08/17 03:13:30;;;;;;;11.23;6.63;;;;;;;22.14;62.44;101203.84;5184993;28;20838;-42
2022/08/17 03:16:03;;;;;;;14.77;9.45;;;;;;;22.14;62.49;101194.94;5184946;28;20424;-42
2022/08/17 03:18:35;;;;;;;13.52;8.60;;;;;;;22.10;62.44;101198.06;5194820;28;20895;-44
2022/08/17 03:21:08;;;;;;;12.75;8.25;;;;;;;22.09;62.22;101196.44;5181944;28;20729;-44
2022/08/17 03:23:41;;;;;;;14.55;8.48;;;;;;;22.06;62.37;101204.94;5181623;28;20470;-41
2022/08/17 03:26:14;;;;;;;12.80;8.07;;;;;;;22.08;62.35;101205.56;5186451;28;20452;-43
2022/08/17 03:28:47;;;;;;;13.15;8.70;;;;;;;22.08;62.20;101197.50;5186189;28;20424;-43
2022/08/17 03:31:20;;;;;;;15.48;11.05;;;;;;;22.07;62.02;101195.00;5186507;28;20470;-45
2022/08/17 03:33:52;;;;;;;19.08;14.63;;;;;;;22.06;62.18;101202.25;5184342;28;20440;-45
2022/08/17 03:36:25;;;;;;;31.77;21.42;;;;;;;22.05;62.11;101192.53;5184382;28;20412;-46
2022/08/17 03:38:57;;;;;;;36.33;23.03;;;;;;;22.04;62.22;101188.19;5187193;28;20439;-47
2022/08/17 03:41:29;;;;;;;34.13;23.67;;;;;;;22.04;62.26;101188.19;5192910;28;20456;-47
2022/08/17 03:44:04;;;;;;;33.70;24.58;;;;;;;22.01;62.24;101188.63;5187769;28;21050;-46
2022/08/17 03:58:06;;;;;;;44.30;27.83;;;;;;;21.83;62.84;101180.47;5182020;28;26175;-49
2022/08/17 04:00:44;;;;;;;42.00;29.45;;;;;;;21.69;62.92;101146.66;5185762;28;20530;-45
2022/08/17 04:03:17;;;;;;;46.17;31.63;;;;;;;21.82;62.91;101173.44;5197183;28;20446;-47
2022/08/17 04:05:49;;;;;;;51.67;33.08;;;;;;;21.79;63.19;101179.25;5186506;28;20854;-46
2022/08/17 04:08:22;;;;;;;52.70;35.88;;;;;;;21.77;63.28;101176.78;5184736;28;20866;-44
2022/08/17 04:11:00;;;;;;;54.00;35.45;;;;;;;21.84;63.06;101174.88;5185083;28;20742;-40
2022/08/17 04:13:32;;;;;;;55.20;36.50;;;;;;;21.87;63.07;101154.81;5188711;28;20823;-42
2022/08/17 04:16:06;;;;;;;54.95;36.78;;;;;;;21.86;63.29;101137.00;5182409;28;20428;-42
2022/08/17 04:18:38;;;;;;;57.13;37.13;;;;;;;21.85;63.26;101125.44;5184962;28;20500;-46
2022/08/17 04:21:11;;;;;;;59.17;39.13;;;;;;;21.66;63.28;101088.75;5186945;28;20445;-42
2022/08/17 04:23:43;;;;;;;56.58;37.35;;;;;;;21.90;63.36;101127.47;5187798;28;20591;-42
2022/08/17 04:26:16;;;;;;;59.00;39.25;;;;;;;21.91;63.40;101129.13;5186196;28;20486;-44
2022/08/17 04:28:48;;;;;;;64.53;40.53;;;;;;;21.94;63.64;101139.44;5184783;28;20910;-44
2022/08/17 04:31:22;;;;;;;61.97;38.00;;;;;;;21.94;63.68;101133.25;5183963;28;20871;-45
2022/08/17 04:33:55;;;;;;;54.70;38.33;;;;;;;21.92;63.73;101143.38;5185282;28;20432;-44
2022/08/17 04:36:27;;;;;;;60.03;37.38;;;;;;;21.82;64.07;101146.56;5190205;28;20777;-45
2022/08/17 04:39:00;;;;;;;60.87;39.10;;;;;;;21.73;64.19;101145.97;5181394;28;20407;-46
2022/08/17 04:44:23;;;;;;;50.00;29.45;;;;;;;21.72;64.44;101109.41;5191331;28;25089;-45
2022/08/17 04:46:56;;;;;;;54.00;31.58;;;;;;;21.74;64.29;101117.22;5187728;28;20453;-43
2022/08/17 04:49:28;;;;;;;58.38;33.72;;;;;;;21.77;64.30;101109.56;5188821;28;20929;-46
2022/08/17 04:52:30;;;;;;;57.10;32.30;;;;;;;21.79;64.27;101114.72;5196037;28;20517;-45
2022/08/17 04:55:04;;;;;;;65.97;37.65;;;;;;;21.78;64.37;101140.78;5182447;28;20586;-44
2022/08/17 04:57:37;;;;;;;59.30;37.03;;;;;;;21.77;64.38;101154.44;5190978;28;20411;-41
2022/08/17 05:00:11;;;;;;;53.78;37.17;;;;;;;21.71;64.58;101149.91;5188326;28;20403;-42
2022/08/17 05:02:49;;;;;;;63.97;35.92;;;;;;;21.60;64.87;101149.56;5189411;28;20430;-43
2022/08/17 05:05:25;;;;;;;56.43;36.37;;;;;;;21.48;64.93;101139.72;5189637;28;20524;-39
2022/08/17 05:08:01;;;;;;;62.45;38.53;;;;;;;21.35;65.44;101132.53;5189463;28;20432;-41
2022/08/17 05:10:38;;;;;;;54.17;34.78;;;;;;;21.28;65.48;101123.69;5187764;28;21171;-42
2022/08/17 05:13:15;;;;;;;58.92;37.88;;;;;;;21.29;65.33;101122.63;5184779;28;20393;-41
2022/08/17 05:15:50;;;;;;;66.38;40.00;;;;;;;21.36;65.13;101131.50;5190277;28;20913;-42
2022/08/17 05:18:24;;;;;;;60.65;39.28;;;;;;;21.43;64.97;101126.94;5188528;28;20738;-42
2022/08/17 05:20:57;;;;;;;64.32;39.33;;;;;;;21.38;65.09;101119.50;5190197;28;20865;-43
2022/08/17 05:23:29;;;;;;;58.23;38.27;;;;;;;21.27;65.40;101122.00;5187577;28;20855;-43
2022/08/17 05:26:02;;;;;;;64.93;40.25;;;;;;;21.21;65.48;101133.59;5188565;28;20863;-43
2022/08/17 05:28:35;;;;;;;72.28;44.35;;;;;;;21.26;65.43;101126.56;5187573;28;20788;-44
2022/08/17 05:31:07;;;;;;;77.15;44.35;;;;;;;21.32;65.37;101127.56;5186871;28;20430;-44
2022/08/17 05:33:42;;;;;;;60.35;41.20;;;;;;;21.34;65.20;101138.94;5184077;28;20449;-42
2022/08/17 05:36:16;;;;;;;67.47;43.63;;;;;;;21.22;65.27;101124.53;5186167;28;20942;-39
2022/08/17 05:39:04;;;;;;;68.50;42.28;;;;;;;21.45;65.27;101151.72;5188438;28;20534;-41
2022/08/17 05:41:36;;;;;;;57.78;38.00;;;;;;;21.45;65.18;101151.72;5186199;28;20428;-41
2022/08/17 05:44:09;;;;;;;49.88;34.75;;;;;;;21.41;65.14;101145.13;5184703;28;20419;-42
2022/08/17 05:46:45;;;;;;;44.53;33.40;;;;;;;21.41;65.38;101131.69;5185577;28;20429;-41
2022/08/17 05:49:27;;;;;;;44.90;32.42;;;;;;;21.39;65.41;101131.06;5187908;28;20437;-43
2022/08/17 05:52:20;;;;;;;45.20;30.23;;;;;;;21.42;65.40;101109.97;5189402;28;20413;-44
2022/08/17 05:55:09;;;;;;;35.00;23.45;;;;;;;21.42;65.46;101101.91;5186247;28;20440;-43
2022/08/17 05:57:56;;;;;;;29.52;20.48;;;;;;;21.35;65.47;101111.03;5199962;28;20970;-44
2022/08/17 06:00:36;;;;;;;22.33;18.27;;;;;;;21.21;66.02;101112.94;5198840;28;20723;-44
2022/08/17 06:03:42;;;;;;;23.83;18.13;;;;;;;21.13;65.97;101110.50;5199892;28;20857;-43
2022/08/17 06:06:31;;;;;;;22.70;15.50;;;;;;;21.09;66.08;101118.16;5179169;28;20881;-43
2022/08/17 06:09:25;;;;;;;18.80;12.30;;;;;;;21.12;66.01;101125.81;5187503;28;20417;-43
2022/08/17 06:12:06;;;;;;;16.38;11.15;;;;;;;21.15;66.00;101120.00;5186412;28;20862;-44
2022/08/17 06:15:01;;;;;;;14.52;11.73;;;;;;;21.19;66.04;101118.53;5181141;28;20734;-43
2022/08/17 06:17:35;;;;;;;12.68;10.25;;;;;;;21.27;65.76;101128.19;5190701;28;20554;-43
2022/08/17 06:20:11;;;;;;;11.93;10.43;;;;;;;21.29;65.85;101130.69;5195096;28;20462;-40
2022/08/17 06:22:49;;;;;;;13.05;10.70;;;;;;;21.35;65.62;101143.25;5197110;28;20807;-42
2022/08/17 06:25:38;;;;;;;12.70;10.95;;;;;;;21.45;65.60;101156.28;5200546;28;20745;-43
2022/08/17 06:28:15;;;;;;;15.15;10.77;;;;;;;21.49;65.56;101161.00;5197961;28;20478;-42
2022/08/17 06:30:52;;;;;;;14.70;10.40;;;;;;;21.55;65.34;101170.06;5190691;28;20917;-40
2022/08/17 06:33:31;;;;;;;12.65;10.70;;;;;;;21.59;65.45;101164.06;5197551;28;20464;-37
2022/08/17 06:36:21;;;;;;;13.57;11.13;;;;;;;21.62;65.44;101152.06;5198213;28;20421;-41
2022/08/17 06:39:09;;;;;;;14.40;10.48;;;;;;;21.64;65.17;101164.22;5184447;28;20512;-42
2022/08/17 06:41:51;;;;;;;12.52;10.20;;;;;;;21.64;65.21;101169.59;5189288;28;20555;-39
2022/08/17 06:44:33;;;;;;;16.17;9.80;;;;;;;21.62;65.38;101177.06;5203459;28;20427;-43
2022/08/17 06:47:12;;;;;;;14.60;10.35;;;;;;;21.58;65.44;101175.81;5198512;28;20967;-41
2022/08/17 06:49:50;;;;;;;14.65;9.52;;;;;;;21.46;65.66;101180.22;5197145;28;20835;-42
2022/08/17 06:52:28;;;;;;;14.77;10.13;;;;;;;21.34;65.59;101172.00;5179512;28;20559;-44
2022/08/17 06:55:08;;;;;;;11.80;9.73;;;;;;;21.35;65.90;101180.88;5182367;28;20533;-44
2022/08/17 06:57:46;;;;;;;12.88;8.90;;;;;;;21.34;65.87;101181.94;5199150;28;20490;-43
2022/08/17 07:00:23;;;;;;;12.10;9.43;;;;;;;21.34;65.88;101187.31;5193375;28;20417;-41
2022/08/17 07:03:05;;;;;;;13.30;9.18;;;;;;;21.31;65.95;101182.34;5189018;28;20555;-42
2022/08/17 07:05:43;;;;;;;10.10;8.02;;;;;;;21.37;65.77;101197.66;5194153;28;20785;-43
2022/08/17 07:08:23;;;;;;;10.98;8.52;;;;;;;21.32;65.84;101216.22;5186536;28;20737;-42
2022/08/17 07:11:01;;;;;;;16.50;10.37;;;;;;;21.33;66.08;101207.13;5195823;28;20501;-43
2022/08/17 07:13:44;;;;;;;13.32;9.88;;;;;;;21.17;65.86;101174.31;5198347;28;20464;-46
2022/08/17 07:16:24;;;;;;;11.32;9.20;;;;;;;21.34;65.95;101195.38;5204906;28;20411;-42
2022/08/17 07:18:58;;;;;;;11.70;8.77;;;;;;;21.24;65.97;101186.91;5075738;28;20412;-43
2022/08/17 07:21:51;;;;;;;12.10;8.50;;;;;;;21.30;66.01;101203.00;5183249;28;20501;-42
2022/08/17 07:24:38;;;;;;;12.90;9.27;;;;;;;21.35;65.83;101205.06;5186022;28;20833;-43
2022/08/17 07:27:19;;;;;;;14.13;8.63;;;;;;;21.34;65.98;101216.84;5170467;28;20417;-42
2022/08/17 07:29:56;;;;;;;11.30;8.63;;;;;;;21.28;65.88;101215.00;5173350;28;20417;-40
2022/08/17 07:32:34;;;;;;;11.27;8.50;;;;;;;21.22;66.38;101205.94;5178000;28;20456;-42
2022/08/17 07:35:16;;;;;;;11.50;9.43;;;;;;;21.15;66.08;101197.91;5174878;28;20481;-42
2022/08/17 07:37:53;;;;;;;13.82;9.65;;;;;;;21.17;66.03;101197.66;5163560;28;20481;-42
2022/08/17 07:40:32;;;;;;;13.80;8.80;;;;;;;21.18;66.12;101205.53;5166924;28;20446;-35
2022/08/17 07:43:19;;;;;;;10.50;8.57;;;;;;;21.18;65.93;101213.59;5180143;28;20726;-42
2022/08/17 07:48:49;;;;;;;13.15;9.43;;;;;;;21.05;66.16;101220.84;5177091;28;20905;-42
2022/08/17 07:51:28;;;;;;;14.50;11.48;;;;;;;20.89;66.12;101179.16;5182610;28;20764;-41
2022/08/17 07:54:05;;;;;;;13.85;10.85;;;;;;;21.09;66.00;101209.47;5175741;28;20439;-40
2022/08/17 07:56:44;;;;;;;18.38;12.23;;;;;;;21.11;66.07;101193.97;5170978;28;20972;-42
2022/08/17 07:59:21;;;;;;;16.15;11.80;;;;;;;21.22;65.82;101186.31;5156478;28;20898;-41
2022/08/17 08:02:25;;;;;;;14.75;10.75;;;;;;;21.32;65.88;101178.63;5149773;28;20565;-42
2022/08/17 08:05:05;;;;;;;12.18;9.85;;;;;;;21.41;65.78;101182.75;5155854;28;20484;-42
2022/08/17 08:07:50;;;;;;;15.35;9.45;;;;;;;21.46;65.85;101190.97;5154838;28;20848;-43
2022/08/17 08:10:34;;;;;;;9.93;8.35;;;;;;;21.58;65.86;101191.94;5154566;28;20484;-44
2022/08/17 08:13:13;;;;;;;12.68;8.32;;;;;;;21.78;65.68;101199.13;5150663;28;20484;-44
2022/08/17 08:15:50;;;;;;;9.18;7.82;;;;;;;21.91;65.70;101201.72;5158097;28;20466;-43
2022/08/17 08:18:27;;;;;;;8.75;7.45;;;;;;;21.94;65.66;101203.97;5160717;28;20922;-45
2022/08/17 08:21:02;;;;;;;9.02;7.45;;;;;;;21.97;65.57;101208.94;5164179;28;20431;-47
2022/08/17 08:23:45;;;;;;;9.50;7.85;;;;;;;22.05;65.64;101216.75;5168616;28;20494;-43
2022/08/17 08:26:27;;;;;;;8.40;7.13;;;;;;;22.15;65.66;101218.13;5188565;28;22001;-48
2022/08/17 08:29:11;;;;;;;7.05;6.35;;;;;;;22.29;65.50;101214.31;5181017;28;20868;-47
2022/08/17 08:31:58;;;;;;;7.87;6.90;;;;;;;22.49;65.25;101211.50;5176472;28;20685;-48
2022/08/17 08:34:44;;;;;;;8.43;6.20;;;;;;;22.67;65.03;101211.56;5177613;28;20728;-47
2022/08/17 08:37:41;;;;;;;7.32;6.15;;;;;;;22.81;65.14;101217.63;5185348;28;20407;-48
2022/08/17 08:40:39;;;;;;;7.03;6.22;;;;;;;22.95;64.93;101216.50;5182045;28;20508;-46
2022/08/17 08:43:26;;;;;;;7.40;5.82;;;;;;;23.10;64.82;101212.59;5188342;28;20505;-46
2022/08/17 08:46:06;;;;;;;7.15;6.40;;;;;;;23.21;64.68;101211.88;5187661;28;20882;-48
2022/08/17 08:49:29;;;;;;;9.38;7.60;;;;;;;23.22;64.45;101210.81;5195959;28;20435;-47
2022/08/17 08:52:09;;;;;;;10.63;7.80;;;;;;;23.11;64.37;101209.69;5123527;28;21009;-47
2022/08/17 08:54:50;;;;;;;11.82;8.73;;;;;;;23.10;64.41;101212.59;5180599;28;20491;-50
2022/08/17 08:57:30;;;;;;;10.02;8.30;;;;;;;23.01;64.25;101210.22;5187099;28;20433;-48
2022/08/17 09:00:13;;;;;;;10.48;8.05;;;;;;;22.97;64.43;101225.16;5190625;28;20440;-46
2022/08/17 09:03:21;;;;;;;10.02;7.80;;;;;;;23.00;64.25;101223.91;5174897;28;20827;-49
2022/08/17 09:06:09;;;;;;;10.02;8.32;;;;;;;22.97;64.23;101213.56;5174572;28;20729;-48
2022/08/17 09:09:00;;;;;;;12.20;9.55;;;;;;;23.00;63.84;101219.31;5183386;28;20735;-45
2022/08/17 09:11:40;;;;;;;10.65;8.73;;;;;;;23.01;63.63;101221.00;5176669;28;20749;-47
2022/08/17 09:14:19;;;;;;;9.77;8.77;;;;;;;22.99;63.48;101206.91;5186353;28;20528;-47
2022/08/17 09:17:02;;;;;;;12.10;10.20;;;;;;;23.19;63.29;101232.81;5188506;28;20789;-48
2022/08/17 09:19:52;;;;;;;13.18;10.57;;;;;;;23.23;63.13;101234.84;5189616;28;20872;-49
2022/08/17 09:22:37;;;;;;;13.73;11.20;;;;;;;23.29;63.08;101232.28;5181779;28;20429;-47
2022/08/17 09:25:16;;;;;;;12.50;10.60;;;;;;;23.36;62.95;101241.97;5180369;28;20421;-46
2022/08/17 09:27:56;;;;;;;13.57;11.68;;;;;;;23.40;62.76;101240.44;5176330;28;20750;-47
2022/08/17 09:30:35;;;;;;;15.07;11.93;;;;;;;23.45;62.65;101231.72;5178948;28;20401;-47
2022/08/17 09:33:11;;;;;;;14.52;12.10;;;;;;;23.50;62.66;101233.72;5178129;28;20799;-49
2022/08/17 09:35:47;;;;;;;17.45;13.43;;;;;;;23.55;62.71;101231.16;5177525;28;21063;-49
2022/08/17 09:38:28;;;;;;;15.05;12.48;;;;;;;23.58;62.58;101228.03;5177251;28;20929;-48
2022/08/17 09:41:14;;;;;;;22.02;15.70;;;;;;;23.61;62.68;101233.78;5172791;28;20816;-45
2022/08/17 09:43:53;;;;;;;21.40;15.10;;;;;;;23.65;62.60;101232.28;5174562;28;20410;-48
2022/08/17 09:46:33;;;;;;;18.37;15.53;;;;;;;23.65;62.79;101234.97;5182221;28;20508;-46
2022/08/17 09:49:12;;;;;;;23.92;16.23;;;;;;;23.65;62.74;101243.06;5175624;28;20500;-48
2022/08/17 09:51:51;;;;;;;18.77;15.75;;;;;;;23.62;62.80;101240.00;5171563;28;20472;-47
2022/08/17 09:54:29;;;;;;;25.80;20.27;;;;;;;23.52;63.12;101242.41;5168701;28;20903;-44
2022/08/17 09:57:21;;;;;;;27.98;21.92;;;;;;;23.42;63.31;101243.75;5174338;28;20561;-48
2022/08/17 10:00:14;;;;;;;28.27;22.30;;;;;;;23.28;63.40;101253.03;5172693;28;20489;-47
2022/08/17 10:03:15;;;;;;;26.02;21.65;;;;;;;23.28;63.46;101247.63;5169707;28;20798;-47
2022/08/17 10:05:56;;;;;;;21.88;17.42;;;;;;;23.26;63.39;101252.44;5171778;28;20726;-44
2022/08/17 10:08:38;;;;;;;27.95;21.95;;;;;;;23.22;63.22;101257.44;5176547;28;20401;-46
2022/08/17 10:11:22;;;;;;;26.25;20.27;;;;;;;23.32;63.06;101256.94;5174775;28;20436;-46
2022/08/17 10:14:07;;;;;;;23.38;18.95;;;;;;;23.40;62.63;101261.19;5180666;28;20798;-47
2022/08/17 10:16:44;;;;;;;19.35;16.67;;;;;;;23.43;62.43;101266.97;5181764;28;20727;-47
2022/08/17 10:19:22;;;;;;;26.10;17.50;;;;;;;23.51;62.36;101278.50;5184025;28;20742;-48
2022/08/17 10:27:46;;;;;;;26.73;20.73;;;;;;;22.97;63.22;101257.47;5189928;28;20857;-42
2022/08/17 10:30:26;;;;;;;25.23;19.75;;;;;;;22.70;63.46;101253.34;5188422;28;20831;-42
2022/08/17 10:33:01;;;;;;;29.90;20.13;;;;;;;22.50;63.68;101257.03;5196249;28;20429;-40
2022/08/17 10:35:45;;;;;;;27.07;21.50;;;;;;;22.37;63.87;101257.13;5181960;28;20425;-45
2022/08/17 10:38:44;;;;;;;29.02;22.42;;;;;;;22.33;63.97;101282.84;5186196;28;20409;-43
2022/08/17 10:41:26;;;;;;;30.73;23.30;;;;;;;22.41;63.77;101287.94;5186341;28;20873;-44
2022/08/17 10:44:09;;;;;;;29.83;23.70;;;;;;;22.51;63.45;101295.53;5186201;28;20443;-42
2022/08/17 10:47:07;;;;;;;29.60;22.73;;;;;;;22.57;63.29;101300.03;5188429;28;20997;-43
2022/08/17 10:49:44;;;;;;;29.42;23.10;;;;;;;22.62;63.18;101302.91;5175910;28;20929;-43
2022/08/17 10:52:49;;;;;;;30.05;23.40;;;;;;;22.65;63.10;101278.25;5185027;28;20758;-40
2022/08/17 10:55:24;;;;;;;35.13;25.45;;;;;;;22.65;63.10;101243.25;5122974;28;20412;-40
2022/08/17 10:58:20;;;;;;;34.93;26.27;;;;;;;22.69;63.23;101211.31;5127645;28;20846;-40
2022/08/17 11:00:58;;;;;;;35.47;24.45;;;;;;;22.64;63.20;101203.06;5163923;28;25101;-41
2022/08/17 11:03:32;;;;;;;34.35;23.52;;;;;;;22.62;63.21;101208.69;5182211;28;20462;-40
2022/08/17 11:06:18;;;;;;;32.95;24.58;;;;;;;22.56;63.47;101209.56;5186425;28;20417;-43
2022/08/17 11:09:55;;;;;;;32.60;24.13;;;;;;;22.62;63.52;101213.25;5191259;28;20425;-42
2022/08/17 11:12:45;;;;;;;36.33;26.55;;;;;;;22.66;63.58;101222.53;5199353;28;20443;-43
2022/08/17 11:15:31;;;;;;;34.20;24.75;;;;;;;22.72;63.43;101235.94;5202081;28;20408;-44
2022/08/17 11:18:32;;;;;;;31.35;24.90;;;;;;;22.79;63.40;101243.94;5200881;28;20715;-45
2022/08/17 11:21:51;;;;;;;31.97;24.77;;;;;;;22.83;63.50;101244.34;5199638;28;20515;-46
2022/08/17 11:24:33;;;;;;;30.23;24.55;;;;;;;22.87;63.73;101251.75;5176597;28;20979;-44
2022/08/17 11:27:12;;;;;;;30.63;24.33;;;;;;;22.95;63.51;101264.97;5161561;28;20411;-44
2022/08/17 11:29:53;;;;;;;33.92;24.25;;;;;;;22.84;63.44;101246.81;5170434;28;20445;-44
2022/08/17 11:32:42;;;;;;;29.02;22.67;;;;;;;23.10;63.50;101277.25;5142814;28;20802;-42
2022/08/17 11:35:32;;;;;;;31.52;23.40;;;;;;;23.17;63.61;101275.34;5162929;28;20524;-42
2022/08/17 11:38:19;;;;;;;34.22;25.48;;;;;;;23.22;63.66;101291.66;5185248;28;20771;-42
2022/08/17 11:41:18;;;;;;;31.90;24.27;;;;;;;23.25;63.74;101286.63;5166207;28;20768;-43
2022/08/17 11:44:20;;;;;;;31.30;23.67;;;;;;;23.30;63.70;101288.69;5163734;28;20445;-42
2022/08/17 11:54:11;;;;;;;27.02;21.83;;;;;;;23.35;63.87;101301.47;5176515;28;20870;-41
2022/08/17 11:56:47;;;;;;;29.03;21.40;;;;;;;23.33;63.89;101296.31;5154896;28;20789;-45
2022/08/17 12:00:00;;;;;;;25.17;20.80;;;;;;;23.39;64.06;101311.59;5179554;28;21153;-45
2022/08/17 12:02:44;;;;;;;23.53;20.50;;;;;;;23.48;64.03;101310.25;5178837;28;20826;-46
2022/08/17 12:05:33;;;;;;;27.50;21.67;;;;;;;23.59;63.90;101314.06;5181541;28;20417;-47
2022/08/17 12:08:16;;;;;;;26.98;21.40;;;;;;;23.69;64.15;101318.97;5176683;28;20410;-46
2022/08/17 12:11:07;;;;;;;21.95;18.40;;;;;;;23.54;64.08;101321.19;5168877;28;20433;-44
2022/08/17 12:13:46;;;;;;;26.45;17.58;;;;;;;23.31;64.36;101322.66;5170302;28;20801;-47
2022/08/17 12:16:21;;;;;;;21.20;18.70;;;;;;;23.15;64.56;101324.06;5183514;28;20441;-45
2022/08/17 12:18:57;;;;;;;23.58;19.30;;;;;;;22.95;64.35;101307.25;5179895;28;20428;-49
2022/08/17 12:21:45;;;;;;;27.33;19.63;;;;;;;23.02;64.40;101322.31;5173115;28;20434;-49
2022/08/17 12:24:36;;;;;;;25.50;19.00;;;;;;;23.02;64.37;101334.94;5123274;28;20865;-46
2022/08/17 12:27:12;;;;;;;25.85;18.92;;;;;;;22.99;64.15;101330.81;5153032;28;20823;-47
2022/08/17 12:29:44;;;;;;;22.75;18.27;;;;;;;22.89;64.41;101330.47;5176049;28;20889;-47
2022/08/17 12:32:19;;;;;;;25.13;19.30;;;;;;;22.78;64.25;101334.69;5164972;28;20770;-45
2022/08/17 12:34:52;;;;;;;23.17;19.13;;;;;;;22.70;64.51;101326.03;5164756;28;20441;-44
2022/08/17 12:37:28;;;;;;;22.85;18.05;;;;;;;22.62;64.35;101339.78;5164459;28;20425;-46
2022/08/17 12:40:06;;;;;;;20.35;17.25;;;;;;;22.44;64.58;101327.88;5157825;28;20405;-46
2022/08/17 12:42:40;;;;;;;21.95;17.40;;;;;;;22.39;64.67;101330.41;5162833;28;20460;-49